Turecamo Girls — WDC3464 — position and weather

sailwx.info

Track history (hours):
 
Tides and Currents Weather Stations Pressure Air Temp Water Temp Dewpoint Dewpoint Depression Visibility Wind Speed Wind Dir Waves Ship Positions

Turecamo Girls

Owner: Moran Towing Corporation, New Canaan, CT. More information available from US FCC via Universal Licensing System and Coast Guard Vessel Documentation Center.

Last reported at 2018-Sep-23 10:31 UTC. Time now 2018-Sep-23 10:40 UTC.
Position N 40°38' W 074°08'.

Length 30 m; draft 4 m.

Type: Tug. MMSI: 366946710.

Date/timePositionNaut miles runAvg speedWind from/ knotsBaromVisibWave heightAir tempDewpointWater temp
2018-Sep-23 10:31N 40°38' W 074°08'0 0.0
2018-Sep-23 10:04N 40°38' W 074°08'0 0.0
2018-Sep-23 10:01N 40°38' W 074°08'0 0.0
2018-Sep-23 09:30N 40°38' W 074°08'0 0.0
2018-Sep-23 09:03N 40°38' W 074°08'0 1.8
2018-Sep-23 09:00N 40°39' W 074°08'4 3.2
2018-Sep-23 07:54N 40°37' W 074°12'1 2.8
2018-Sep-23 07:29N 40°38' W 074°11'3 6.0
2018-Sep-23 07:01N 40°38' W 074°08'0 0.0
2018-Sep-23 06:58N 40°38' W 074°08'0 0.0
2018-Sep-23 06:28N 40°38' W 074°08'0 0.0
2018-Sep-23 05:58N 40°38' W 074°08'0 0.0
2018-Sep-23 05:28N 40°38' W 074°08'0 0.0
2018-Sep-23 05:01N 40°38' W 074°08'0 0.0
2018-Sep-23 04:58N 40°38' W 074°08'0 0.0
2018-Sep-23 04:28N 40°38' W 074°08'0 0.0
2018-Sep-23 04:01N 40°38' W 074°08'0 0.0
2018-Sep-23 03:58N 40°38' W 074°08'0 0.0
2018-Sep-23 03:28N 40°38' W 074°08'0 0.0
2018-Sep-23 03:01N 40°38' W 074°08'0 0.0
2018-Sep-23 02:58N 40°38' W 074°08'0 0.0
2018-Sep-23 02:28N 40°38' W 074°08'0 0.0
2018-Sep-23 02:01N 40°38' W 074°08'0 0.1
2018-Sep-23 01:58N 40°38' W 074°08'0 0.0
2018-Sep-23 01:28N 40°38' W 074°08'0 0.0
2018-Sep-23 01:01N 40°38' W 074°08'0 0.0
2018-Sep-23 00:58N 40°38' W 074°08'0 0.0
2018-Sep-23 00:28N 40°38' W 074°08'0 0.0
2018-Sep-23 00:01N 40°38' W 074°08'0 0.0
2018-Sep-22 23:58N 40°38' W 074°08'0 0.0
2018-Sep-22 23:28N 40°38' W 074°08'0 1.2
2018-Sep-22 23:03N 40°39' W 074°08'0 7.9
2018-Sep-22 23:00N 40°39' W 074°09'5 3.4
2018-Sep-22 21:32N 40°34' W 074°13'1 3.1
2018-Sep-22 21:10N 40°36' W 074°12'1 0.9
2018-Sep-22 20:21N 40°36' W 074°12'1 4.4
2018-Sep-22 20:03N 40°38' W 074°12'0 9.4
2018-Sep-22 20:00N 40°38' W 074°12'3 5.9
2018-Sep-22 19:28N 40°38' W 074°08'0 0.0
2018-Sep-22 19:01N 40°38' W 074°08'0 0.0
2018-Sep-22 18:55N 40°38' W 074°08'0 0.0
2018-Sep-22 17:40N 40°38' W 074°08'0 0.0
2018-Sep-22 17:19N 40°38' W 074°08'0 0.0
2018-Sep-22 17:01N 40°38' W 074°08'0 0.1
2018-Sep-22 16:58N 40°38' W 074°08'0 0.0
2018-Sep-22 16:31N 40°38' W 074°08'0 0.0
2018-Sep-22 16:01N 40°38' W 074°08'0 0.0
2018-Sep-22 15:30N 40°38' W 074°08'0 0.0
2018-Sep-22 14:57N 40°38' W 074°08'0 0.0
2018-Sep-22 14:24N 40°38' W 074°08'0 0.0
2018-Sep-22 12:58N 40°38' W 074°08'3 6.5
2018-Sep-22 12:29N 40°38' W 074°04'1 2.3
2018-Sep-22 12:03N 40°37' W 074°03'0 2.3
2018-Sep-22 12:00N 40°37' W 074°03'3 5.2
2018-Sep-22 11:30N 40°39' W 074°05'1 1.8
2018-Sep-22 11:03N 40°39' W 074°06'0 0.0
2018-Sep-22 11:00N 40°39' W 074°06'1 2.9
2018-Sep-22 10:30N 40°38' W 074°08'0 0.0
2018-Sep-22 10:01N 40°38' W 074°08'0 0.0
2018-Sep-22 09:58N 40°38' W 074°08'0 0.0
2018-Sep-22 09:28N 40°38' W 074°08'3 7.2
2018-Sep-22 09:03N 40°39' W 074°04'111.3
2018-Sep-22 09:00N 40°39' W 074°03'2 3.5
2018-Sep-22 08:30N 40°40' W 074°01'0 0.2
2018-Sep-22 08:03N 40°40' W 074°01'0 0.5
2018-Sep-22 08:00N 40°40' W 074°01'2 3.7
2018-Sep-22 07:30N 40°38' W 074°03'2 4.5
2018-Sep-22 07:03N 40°39' W 074°05'0 9.8
2018-Sep-22 07:01N 40°39' W 074°06'2 2.4
2018-Sep-22 06:16N 40°38' W 074°08'0 0.0
2018-Sep-22 06:01N 40°38' W 074°08'0 0.1
2018-Sep-22 05:55N 40°38' W 074°08'0 0.0
2018-Sep-22 05:13N 40°38' W 074°08'1 5.6
2018-Sep-22 05:03N 40°39' W 074°07'0 3.4
2018-Sep-22 05:00N 40°39' W 074°07'1 0.6
2018-Sep-22 03:39N 40°38' W 074°08'0 0.0
2018-Sep-22 03:27N 40°38' W 074°08'0 0.0
2018-Sep-22 02:39N 40°38' W 074°08'0 0.0
2018-Sep-22 02:21N 40°38' W 074°08'0 0.0
2018-Sep-22 01:57N 40°38' W 074°08'0 0.0
2018-Sep-22 01:21N 40°38' W 074°08'0 0.0
2018-Sep-21 23:51N 40°38' W 074°08'0 0.0
2018-Sep-21 21:36N 40°38' W 074°08'0 0.2
2018-Sep-21 21:27N 40°38' W 074°08'3 7.2
2018-Sep-21 21:04N 40°41' W 074°08'110.3
2018-Sep-21 21:01N 40°42' W 074°07'1 1.7
2018-Sep-21 20:29N 40°43' W 074°07'2 5.3
2018-Sep-21 20:03N 40°40' W 074°08'0 5.4
2018-Sep-21 20:01N 40°40' W 074°08'3 5.4
2018-Sep-21 19:26N 40°38' W 074°11'2 2.2
2018-Sep-21 18:25N 40°36' W 074°12'2 6.7
2018-Sep-21 18:03N 40°39' W 074°11'0 7.6
2018-Sep-21 18:00N 40°39' W 074°11'2 4.3
2018-Sep-21 17:28N 40°38' W 074°08'0 0.0
2018-Sep-21 17:01N 40°38' W 074°08'0 0.0
2018-Sep-21 16:58N 40°38' W 074°08'0 0.0
2018-Sep-21 16:27N 40°38' W 074°08'0 0.0
2018-Sep-21 16:03N 40°38' W 074°08'0 0.1
2018-Sep-21 16:00N 40°38' W 074°08'0 0.0
2018-Sep-21 15:30N 40°38' W 074°08'0 0.0
2018-Sep-21 14:51N 40°38' W 074°08'0 0.0
2018-Sep-21 14:27N 40°38' W 074°08'0 0.0
2018-Sep-21 13:30N 40°38' W 074°08'0 0.0
2018-Sep-21 13:00N 40°38' W 074°08'0 0.0
2018-Sep-21 12:30N 40°38' W 074°08'0 0.0
2018-Sep-21 12:03N 40°38' W 074°08'0 0.1
2018-Sep-21 11:57N 40°38' W 074°08'0 0.0
2018-Sep-21 11:27N 40°38' W 074°08'0 0.0
2018-Sep-21 11:03N 40°38' W 074°08'0 0.0
2018-Sep-21 10:51N 40°38' W 074°08'1 3.4
2018-Sep-21 10:30N 40°39' W 074°09'8 5.1
2018-Sep-21 08:59N 40°32' W 074°15'1 0.7
2018-Sep-21 08:13N 40°33' W 074°15'2 9.2
2018-Sep-21 08:01N 40°34' W 074°13'110.4
2018-Sep-21 07:57N 40°34' W 074°13'4 9.8
2018-Sep-21 07:30N 40°39' W 074°11'2 5.1
2018-Sep-21 07:01N 40°38' W 074°08'0 0.0
2018-Sep-21 06:58N 40°38' W 074°08'0 0.0
2018-Sep-21 06:28N 40°38' W 074°08'0 0.0
2018-Sep-21 06:01N 40°38' W 074°08'0 0.0
2018-Sep-21 05:58N 40°38' W 074°08'0 0.0
2018-Sep-21 05:25N 40°38' W 074°08'0 0.0
2018-Sep-21 05:01N 40°38' W 074°08'0 0.0
2018-Sep-21 04:52N 40°38' W 074°08'0 0.0
2018-Sep-21 04:28N 40°38' W 074°08'0 0.0
2018-Sep-21 04:01N 40°38' W 074°08'0 0.0
2018-Sep-21 03:55N 40°38' W 074°08'1 1.8
2018-Sep-21 03:30N 40°39' W 074°07'1 1.5
2018-Sep-21 03:02N 40°39' W 074°06'0 0.0
2018-Sep-21 03:00N 40°39' W 074°06'0 0.0
2018-Sep-21 02:30N 40°39' W 074°06'1 2.3
2018-Sep-21 01:58N 40°39' W 074°08'3 6.1
2018-Sep-21 01:28N 40°38' W 074°12'5 5.1
2018-Sep-21 00:26N 40°33' W 074°14'1 0.2
2018-Sep-20 19:33N 40°34' W 074°13'110.4
2018-Sep-20 19:30N 40°35' W 074°13'4 8.8
2018-Sep-20 19:03N 40°38' W 074°12'0 0.1
2018-Sep-20 19:00N 40°38' W 074°12'3 5.9
2018-Sep-20 18:30N 40°38' W 074°08'0 0.0
2018-Sep-20 18:03N 40°38' W 074°08'0 0.1
2018-Sep-20 18:00N 40°38' W 074°08'0 0.0
2018-Sep-20 17:30N 40°38' W 074°08'3 7.5
2018-Sep-20 17:03N 40°39' W 074°04'112.3
2018-Sep-20 17:00N 40°40' W 074°03'713.1
2018-Sep-20 16:30N 40°46' W 074°00'613.6
2018-Sep-20 16:03N 40°52' W 073°57'113.2
2018-Sep-20 15:59N 40°53' W 073°56'6 0.8
2018-Sep-20 08:49N 40°58' W 073°54'3 8.4
2018-Sep-20 08:29N 40°55' W 073°55'4 8.6
2018-Sep-20 08:03N 40°52' W 073°56'0 9.6
2018-Sep-20 08:00N 40°52' W 073°57'4 8.7
2018-Sep-20 07:29N 40°47' W 073°59'4 9.2
2018-Sep-20 07:03N 40°44' W 074°01'0 9.8
2018-Sep-20 07:00N 40°43' W 074°01'5 9.8
2018-Sep-20 06:30N 40°39' W 074°05'2 4.9
2018-Sep-20 06:02N 40°38' W 074°08'0 0.1
2018-Sep-20 05:59N 40°38' W 074°08'0 0.0
2018-Sep-20 05:29N 40°38' W 074°08'0 0.0
2018-Sep-20 05:02N 40°38' W 074°08'0 0.0
2018-Sep-20 04:53N 40°38' W 074°08'0 0.0
2018-Sep-20 04:29N 40°38' W 074°08'0 0.0
2018-Sep-20 04:02N 40°38' W 074°08'0 0.0
2018-Sep-20 03:59N 40°38' W 074°08'0 0.0
2018-Sep-20 03:20N 40°38' W 074°08'0 0.0
2018-Sep-20 03:02N 40°38' W 074°08'0 0.1
2018-Sep-20 02:56N 40°38' W 074°08'0 0.0
2018-Sep-20 02:11N 40°38' W 074°08'0 0.0
2018-Sep-20 02:02N 40°38' W 074°08'0 0.0
2018-Sep-20 01:53N 40°38' W 074°08'0 0.0
2018-Sep-20 01:26N 40°38' W 074°08'0 0.0
2018-Sep-20 00:59N 40°38' W 074°08'1 1.9
2018-Sep-20 00:26N 40°39' W 074°07'0 0.0
2018-Sep-19 23:59N 40°39' W 074°07'0 0.0
2018-Sep-19 23:29N 40°39' W 074°07'0 0.0
2018-Sep-19 23:03N 40°39' W 074°07'0 0.1
2018-Sep-19 23:00N 40°39' W 074°07'1 1.5
2018-Sep-19 22:19N 40°38' W 074°08'0 0.0
2018-Sep-19 22:01N 40°38' W 074°08'0 0.1
2018-Sep-19 21:58N 40°38' W 074°08'1 2.0
2018-Sep-19 21:30N 40°39' W 074°07'0 0.8
2018-Sep-19 20:55N 40°39' W 074°06'0 0.7
2018-Sep-19 20:30N 40°39' W 074°06'0 0.4
2018-Sep-19 19:59N 40°39' W 074°05'2 3.6
2018-Sep-19 19:29N 40°38' W 074°08'0 0.0
2018-Sep-19 19:02N 40°38' W 074°08'0 0.0
2018-Sep-19 18:59N 40°38' W 074°08'0 0.0
2018-Sep-19 18:29N 40°38' W 074°08'0 0.0
2018-Sep-19 17:59N 40°38' W 074°08'0 0.0
2018-Sep-19 17:26N 40°38' W 074°08'0 0.0
2018-Sep-19 17:02N 40°38' W 074°08'0 0.0
2018-Sep-19 16:44N 40°38' W 074°08'0 0.0
2018-Sep-19 16:23N 40°38' W 074°08'0 0.0
2018-Sep-19 16:02N 40°38' W 074°08'0 0.1
2018-Sep-19 15:59N 40°38' W 074°08'0 0.0
2018-Sep-19 15:23N 40°38' W 074°08'0 0.0
2018-Sep-19 15:02N 40°38' W 074°08'0 0.1
2018-Sep-19 14:59N 40°38' W 074°08'0 0.0
2018-Sep-19 14:02N 40°38' W 074°08'0 0.0
2018-Sep-19 13:26N 40°38' W 074°08'0 0.0
2018-Sep-19 12:50N 40°38' W 074°08'0 0.0
2018-Sep-19 12:29N 40°38' W 074°08'0 0.0
2018-Sep-19 12:02N 40°38' W 074°08'0 0.0
2018-Sep-19 11:59N 40°38' W 074°08'0 0.0
2018-Sep-19 11:26N 40°38' W 074°08'0 0.0
2018-Sep-19 10:59N 40°38' W 074°08'0 0.0
2018-Sep-19 10:29N 40°38' W 074°08'0 0.0
2018-Sep-19 10:02N 40°38' W 074°08'0 0.0
2018-Sep-19 09:59N 40°38' W 074°08'1 1.2
2018-Sep-19 09:14N 40°39' W 074°07'1 4.2
2018-Sep-19 09:01N 40°38' W 074°08'0 0.0
2018-Sep-19 08:52N 40°38' W 074°08'0 0.0
2018-Sep-19 08:28N 40°38' W 074°08'0 0.0
2018-Sep-19 07:58N 40°38' W 074°08'0 0.0
2018-Sep-19 07:30N 40°38' W 074°08'3 7.5
2018-Sep-19 07:03N 40°38' W 074°12'0 0.1
2018-Sep-19 06:40N 40°38' W 074°12'1 8.8
2018-Sep-19 06:30N 40°39' W 074°11'2 4.5
2018-Sep-19 06:00N 40°38' W 074°08'0 0.0
2018-Sep-19 05:30N 40°38' W 074°08'0 0.0
2018-Sep-19 05:00N 40°38' W 074°08'0 0.0
2018-Sep-19 04:30N 40°38' W 074°08'0 0.0
2018-Sep-19 04:00N 40°38' W 074°08'0 0.0
2018-Sep-19 03:30N 40°38' W 074°08'0 0.0
2018-Sep-19 02:54N 40°38' W 074°08'0 0.0
2018-Sep-19 02:30N 40°38' W 074°08'0 0.0
2018-Sep-19 02:00N 40°38' W 074°08'0 0.0
2018-Sep-19 01:18N 40°38' W 074°08'0 0.0
2018-Sep-19 01:00N 40°38' W 074°08'0 0.0
2018-Sep-19 00:30N 40°38' W 074°08'0 0.0
2018-Sep-19 00:00N 40°38' W 074°08'0 0.0
2018-Sep-18 23:24N 40°38' W 074°08'0 0.0
2018-Sep-18 23:00N 40°38' W 074°08'0 0.0
2018-Sep-18 22:30N 40°38' W 074°08'1 2.5
2018-Sep-18 22:03N 40°39' W 074°09'111.9
2018-Sep-18 22:00N 40°40' W 074°08'3 6.3
2018-Sep-18 21:30N 40°43' W 074°07'1 1.4
2018-Sep-18 21:03N 40°42' W 074°07'0 0.2
2018-Sep-18 21:01N 40°42' W 074°07'2 3.4
2018-Sep-18 20:30N 40°41' W 074°08'2 4.9
2018-Sep-18 20:03N 40°38' W 074°09'0 4.4
2018-Sep-18 20:00N 40°39' W 074°08'2 3.3
2018-Sep-18 19:29N 40°39' W 074°11'5 2.5
2018-Sep-18 17:20N 40°34' W 074°13'2 5.7
2018-Sep-18 17:02N 40°35' W 074°12'0 4.6
2018-Sep-18 17:00N 40°35' W 074°12'3 5.3
2018-Sep-18 16:30N 40°38' W 074°12'2 5.5
2018-Sep-18 16:03N 40°38' W 074°09'0 7.6
2018-Sep-18 16:00N 40°39' W 074°08'4 7.3
2018-Sep-18 15:30N 40°39' W 074°03'3 6.2
2018-Sep-18 15:03N 40°36' W 074°02'0 5.4
2018-Sep-18 15:00N 40°36' W 074°02'1 1.9
2018-Sep-18 14:29N 40°35' W 074°02'0 0.3
2018-Sep-18 14:00N 40°35' W 074°02'0 0.2
2018-Sep-18 13:30N 40°35' W 074°02'0 0.2
2018-Sep-18 13:02N 40°35' W 074°02'0 0.7
2018-Sep-18 13:00N 40°35' W 074°02'4 8.9
2018-Sep-18 12:30N 40°39' W 074°04'510.6
2018-Sep-18 12:03N 40°39' W 074°11'0 9.0
2018-Sep-18 12:00N 40°39' W 074°11'5 8.5
2018-Sep-18 11:23N 40°33' W 074°13'1 0.4
2018-Sep-18 09:31N 40°34' W 074°13'011.6
2018-Sep-18 09:29N 40°35' W 074°13'410.1
2018-Sep-18 09:03N 40°39' W 074°11'0 9.0
2018-Sep-18 09:00N 40°39' W 074°11'2 3.5
2018-Sep-18 08:25N 40°38' W 074°08'0 0.0
2018-Sep-18 08:04N 40°38' W 074°08'0 0.0
2018-Sep-18 07:58N 40°38' W 074°08'0 0.0
2018-Sep-18 07:28N 40°38' W 074°08'0 0.0
2018-Sep-18 07:03N 40°38' W 074°08'0 0.0
2018-Sep-18 06:57N 40°38' W 074°08'0 0.0
2018-Sep-18 06:27N 40°38' W 074°08'0 0.0
2018-Sep-18 06:03N 40°38' W 074°08'0 0.1
2018-Sep-18 06:00N 40°38' W 074°08'0 0.0
2018-Sep-18 05:27N 40°38' W 074°08'0 0.0
2018-Sep-18 05:03N 40°38' W 074°08'0 0.1
2018-Sep-18 04:57N 40°38' W 074°08'0 0.0
2018-Sep-18 04:27N 40°38' W 074°08'0 0.0
2018-Sep-18 04:03N 40°38' W 074°08'0 0.0
2018-Sep-18 04:00N 40°38' W 074°08'0 0.0
2018-Sep-18 03:27N 40°38' W 074°08'0 0.0
2018-Sep-18 03:03N 40°38' W 074°08'0 0.0
2018-Sep-18 02:57N 40°38' W 074°08'0 0.0
2018-Sep-18 02:27N 40°38' W 074°08'0 0.0
2018-Sep-18 02:03N 40°38' W 074°08'0 0.0
2018-Sep-18 02:00N 40°38' W 074°08'0 0.0
2018-Sep-18 01:31N 40°38' W 074°08'0 0.0
2018-Sep-18 01:03N 40°38' W 074°08'0 0.0
2018-Sep-18 01:00N 40°38' W 074°08'0 0.0
2018-Sep-18 00:31N 40°38' W 074°08'2 3.7
2018-Sep-18 00:03N 40°39' W 074°10'0 0.0
2018-Sep-17 23:59N 40°39' W 074°10'0 0.0
2018-Sep-17 23:31N 40°39' W 074°10'0 0.0
2018-Sep-17 23:04N 40°39' W 074°10'0 0.0
2018-Sep-17 23:00N 40°39' W 074°10'0 0.0
2018-Sep-17 22:30N 40°39' W 074°10'0 0.0
2018-Sep-17 22:03N 40°39' W 074°10'0 0.0
2018-Sep-17 21:59N 40°39' W 074°10'0 0.0
2018-Sep-17 21:30N 40°39' W 074°10'2 3.8
2018-Sep-17 21:02N 40°38' W 074°12'110.0
2018-Sep-17 20:59N 40°37' W 074°12'4 8.6
2018-Sep-17 20:30N 40°33' W 074°14'0 0.1
2018-Sep-17 19:46N 40°34' W 074°14'2 7.3
2018-Sep-17 19:27N 40°35' W 074°12'3 7.8
2018-Sep-17 19:03N 40°38' W 074°12'0 0.1
2018-Sep-17 18:59N 40°38' W 074°12'3 6.0
2018-Sep-17 18:29N 40°38' W 074°08'0 0.0
2018-Sep-17 17:59N 40°38' W 074°08'0 0.0
2018-Sep-17 17:23N 40°38' W 074°08'0 0.0
2018-Sep-17 17:02N 40°38' W 074°08'0 0.0
2018-Sep-17 16:59N 40°38' W 074°08'0 0.0
2018-Sep-17 16:29N 40°38' W 074°08'0 0.0
2018-Sep-17 16:02N 40°38' W 074°08'0 0.0
2018-Sep-17 15:56N 40°38' W 074°08'0 0.0
2018-Sep-17 15:29N 40°38' W 074°08'0 0.0
2018-Sep-17 14:59N 40°38' W 074°08'0 0.0
2018-Sep-17 14:29N 40°38' W 074°08'0 0.0
2018-Sep-17 13:59N 40°38' W 074°08'0 0.0
2018-Sep-17 13:29N 40°38' W 074°08'0 0.0
2018-Sep-17 13:02N 40°38' W 074°08'0 0.0
2018-Sep-17 12:59N 40°38' W 074°08'0 0.0
2018-Sep-17 12:23N 40°38' W 074°08'0 0.0
2018-Sep-17 12:02N 40°38' W 074°08'0 0.1
2018-Sep-17 11:59N 40°38' W 074°08'0 0.0
2018-Sep-17 11:29N 40°38' W 074°08'0 0.0
2018-Sep-17 11:03N 40°38' W 074°08'0 0.1
2018-Sep-17 11:00N 40°38' W 074°08'3 5.7
2018-Sep-17 10:29N 40°41' W 074°08'0 0.6
2018-Sep-17 10:03N 40°41' W 074°08'0 3.5
2018-Sep-17 10:00N 40°41' W 074°08'2 4.7
2018-Sep-17 09:29N 40°39' W 074°07'0 0.2
2018-Sep-17 07:46N 40°38' W 074°08'0 0.0
2018-Sep-17 07:22N 40°38' W 074°08'0 0.0
2018-Sep-17 06:58N 40°38' W 074°08'0 0.0
2018-Sep-17 06:22N 40°38' W 074°08'0 0.0
2018-Sep-17 06:01N 40°38' W 074°08'0 0.1
2018-Sep-17 05:58N 40°38' W 074°08'0 0.0
2018-Sep-17 05:25N 40°38' W 074°08'0 0.0
2018-Sep-17 05:01N 40°38' W 074°08'0 0.0
2018-Sep-17 04:55N 40°38' W 074°08'0 0.0
2018-Sep-17 04:25N 40°38' W 074°08'0 0.0
2018-Sep-17 04:01N 40°38' W 074°08'0 0.0
2018-Sep-17 03:43N 40°38' W 074°08'0 0.0
2018-Sep-17 03:13N 40°38' W 074°08'0 0.0
2018-Sep-17 03:01N 40°38' W 074°08'0 0.0
2018-Sep-17 02:55N 40°38' W 074°08'0 0.0
2018-Sep-17 02:25N 40°38' W 074°08'0 0.0
2018-Sep-17 02:01N 40°38' W 074°08'0 0.0
2018-Sep-17 01:49N 40°38' W 074°08'0 0.0
2018-Sep-17 01:25N 40°38' W 074°08'0 0.0
2018-Sep-17 00:55N 40°38' W 074°08'0 0.0
2018-Sep-17 00:25N 40°38' W 074°08'0 0.0
2018-Sep-17 00:03N 40°38' W 074°08'0 5.0
2018-Sep-16 23:59N 40°39' W 074°08'8 2.7
2018-Sep-16 21:03N 40°32' W 074°15'0 0.1
2018-Sep-16 18:02N 40°33' W 074°15'1 0.3
2018-Sep-16 16:24N 40°32' W 074°15'0 0.2
2018-Sep-16 14:10N 40°33' W 074°15'3 3.9
2018-Sep-16 13:29N 40°35' W 074°13'0 1.0
2018-Sep-16 13:03N 40°35' W 074°13'0 0.0
2018-Sep-16 13:00N 40°35' W 074°13'3 5.9
2018-Sep-16 12:30N 40°38' W 074°12'3 7.4
2018-Sep-16 12:03N 40°38' W 074°08'0 0.0
2018-Sep-16 12:00N 40°38' W 074°08'2 4.4
2018-Sep-16 11:30N 40°39' W 074°05'1 2.0
2018-Sep-16 11:03N 40°39' W 074°06'0 9.1
2018-Sep-16 11:00N 40°39' W 074°07'1 1.6
2018-Sep-16 10:29N 40°38' W 074°08'0 0.0
2018-Sep-16 10:02N 40°38' W 074°08'0 0.0
2018-Sep-16 09:59N 40°38' W 074°08'0 0.0
2018-Sep-16 09:29N 40°38' W 074°08'0 0.0
2018-Sep-16 09:02N 40°38' W 074°08'0 0.0
2018-Sep-16 08:59N 40°38' W 074°08'0 0.0
2018-Sep-16 08:26N 40°38' W 074°08'0 0.0
2018-Sep-16 08:02N 40°38' W 074°08'0 0.0
2018-Sep-16 07:56N 40°38' W 074°08'0 0.0
2018-Sep-16 07:29N 40°38' W 074°08'0 0.0
2018-Sep-16 07:02N 40°38' W 074°08'0 0.0
2018-Sep-16 06:59N 40°38' W 074°08'0 0.0
2018-Sep-16 06:29N 40°38' W 074°08'0 0.0
2018-Sep-16 06:02N 40°38' W 074°08'0 0.0
2018-Sep-16 05:59N 40°38' W 074°08'0 0.0
2018-Sep-16 05:29N 40°38' W 074°08'0 0.0
2018-Sep-16 05:02N 40°38' W 074°08'0 0.0
2018-Sep-16 04:56N 40°38' W 074°08'0 0.0
2018-Sep-16 04:29N 40°38' W 074°08'0 0.0
2018-Sep-16 04:02N 40°38' W 074°08'0 0.0
2018-Sep-16 03:56N 40°38' W 074°08'0 0.0
2018-Sep-16 03:29N 40°38' W 074°08'0 0.0
2018-Sep-16 03:02N 40°38' W 074°08'0 0.0
2018-Sep-16 02:59N 40°38' W 074°08'0 0.0
2018-Sep-16 02:29N 40°38' W 074°08'0 0.0
2018-Sep-16 02:02N 40°38' W 074°08'0 0.0
2018-Sep-16 01:59N 40°38' W 074°08'0 0.0
2018-Sep-16 01:29N 40°38' W 074°08'0 0.0
2018-Sep-16 01:02N 40°38' W 074°08'0 0.0
2018-Sep-16 00:56N 40°38' W 074°08'0 0.0
2018-Sep-16 00:26N 40°38' W 074°08'0 0.0
2018-Sep-16 00:02N 40°38' W 074°08'0 0.0
2018-Sep-15 23:57N 40°38' W 074°08'2 4.8
2018-Sep-15 23:30N 40°39' W 074°05'1 1.9
2018-Sep-15 23:03N 40°39' W 074°06'0 8.9
2018-Sep-15 23:00N 40°39' W 074°07'1 1.5
2018-Sep-15 22:24N 40°38' W 074°08'0 0.0
2018-Sep-15 22:03N 40°38' W 074°08'0 0.0
2018-Sep-15 22:00N 40°38' W 074°08'0 0.0
2018-Sep-15 21:30N 40°38' W 074°08'0 0.0
2018-Sep-15 21:03N 40°38' W 074°08'0 0.0
2018-Sep-15 21:00N 40°38' W 074°08'0 0.0
2018-Sep-15 20:30N 40°38' W 074°08'0 0.2
2018-Sep-15 20:03N 40°39' W 074°08'0 6.0
2018-Sep-15 20:00N 40°39' W 074°07'3 6.7
2018-Sep-15 19:30N 40°39' W 074°03'1 2.5
2018-Sep-15 19:02N 40°40' W 074°04'0 0.1
2018-Sep-15 18:59N 40°40' W 074°04'0 0.0
2018-Sep-15 18:29N 40°40' W 074°04'0 0.0
2018-Sep-15 18:02N 40°40' W 074°04'0 0.0
2018-Sep-15 17:59N 40°40' W 074°04'0 0.0
2018-Sep-15 17:26N 40°40' W 074°04'0 0.0
2018-Sep-15 17:02N 40°40' W 074°04'0 0.0
2018-Sep-15 16:59N 40°40' W 074°04'1 2.2
2018-Sep-15 16:30N 40°39' W 074°03'3 7.5
2018-Sep-15 16:03N 40°38' W 074°08'0 0.0
2018-Sep-15 15:57N 40°38' W 074°08'0 0.0
2018-Sep-15 15:27N 40°38' W 074°08'0 0.0
2018-Sep-15 13:42N 40°38' W 074°08'0 0.0
2018-Sep-15 13:30N 40°38' W 074°08'0 0.0
2018-Sep-15 12:33N 40°38' W 074°08'0 0.0
2018-Sep-15 12:27N 40°38' W 074°08'0 0.0
2018-Sep-15 11:54N 40°38' W 074°08'0 0.0
2018-Sep-15 11:27N 40°38' W 074°08'0 0.0
2018-Sep-15 11:03N 40°38' W 074°08'0 0.0
2018-Sep-15 10:57N 40°38' W 074°08'0 0.0
2018-Sep-15 10:27N 40°38' W 074°08'2 5.0
2018-Sep-15 10:04N 40°40' W 074°08'010.0
2018-Sep-15 10:01N 40°41' W 074°08'2 3.9
2018-Sep-15 09:31N 40°43' W 074°07'1 1.5
2018-Sep-15 09:03N 40°42' W 074°07'0 5.5
2018-Sep-15 09:01N 40°42' W 074°07'1 1.5
2018-Sep-15 08:28N 40°41' W 074°08'3 6.1
2018-Sep-15 08:02N 40°39' W 074°08'0 2.2
2018-Sep-15 08:00N 40°38' W 074°08'0 0.0
2018-Sep-15 07:30N 40°38' W 074°08'0 0.0
2018-Sep-15 07:03N 40°38' W 074°08'0 0.1
2018-Sep-15 07:01N 40°38' W 074°08'0 0.0
2018-Sep-15 06:30N 40°38' W 074°08'0 0.0
2018-Sep-15 06:04N 40°38' W 074°08'0 0.0
2018-Sep-15 06:01N 40°38' W 074°08'0 0.0
2018-Sep-15 05:30N 40°38' W 074°08'0 0.3
2018-Sep-15 05:04N 40°39' W 074°08'0 8.7
2018-Sep-15 05:00N 40°39' W 074°07'0 0.7
2018-Sep-15 04:30N 40°39' W 074°07'1 2.2
2018-Sep-15 04:04N 40°38' W 074°08'0 0.0
2018-Sep-15 04:00N 40°38' W 074°08'0 0.0
2018-Sep-15 03:31N 40°38' W 074°08'0 0.0
2018-Sep-15 03:03N 40°38' W 074°08'0 0.0
2018-Sep-15 03:01N 40°38' W 074°08'0 0.0
2018-Sep-15 02:31N 40°38' W 074°08'0 0.0
2018-Sep-15 02:04N 40°38' W 074°08'0 0.0
2018-Sep-15 02:00N 40°38' W 074°08'0 0.0
2018-Sep-15 01:31N 40°38' W 074°08'0 0.0
2018-Sep-15 01:04N 40°38' W 074°08'0 0.0
2018-Sep-15 01:01N 40°38' W 074°08'0 0.0
2018-Sep-15 00:31N 40°38' W 074°08'0 0.0
2018-Sep-15 00:03N 40°38' W 074°08'0 0.2
2018-Sep-15 00:00N 40°38' W 074°08'0 0.0
2018-Sep-14 23:31N 40°38' W 074°08'0 0.0
2018-Sep-14 23:02N 40°38' W 074°08'0 0.0
2018-Sep-14 23:00N 40°38' W 074°08'0 0.0
2018-Sep-14 22:30N 40°38' W 074°08'0 0.0
2018-Sep-14 22:04N 40°38' W 074°08'0 0.0
2018-Sep-14 22:00N 40°38' W 074°08'0 0.0
2018-Sep-14 21:30N 40°38' W 074°08'0 0.0
2018-Sep-14 21:03N 40°38' W 074°08'0 0.0
2018-Sep-14 21:00N 40°38' W 074°08'0 0.0
2018-Sep-14 20:31N 40°38' W 074°08'0 0.0
2018-Sep-14 20:04N 40°38' W 074°08'0 0.0
2018-Sep-14 20:01N 40°38' W 074°08'1 2.8
2018-Sep-14 19:30N 40°39' W 074°10'6 7.9
2018-Sep-14 18:45N 40°33' W 074°13'2 2.5
2018-Sep-14 18:03N 40°32' W 074°15'0 0.7
2018-Sep-14 17:57N 40°33' W 074°15'3 5.7
2018-Sep-14 17:30N 40°34' W 074°13'4 7.7
2018-Sep-14 17:01N 40°38' W 074°12'0 7.3
2018-Sep-14 17:00N 40°38' W 074°12'3 7.0
2018-Sep-14 16:30N 40°39' W 074°08'1 2.1
2018-Sep-14 16:04N 40°39' W 074°06'0 0.0
2018-Sep-14 16:01N 40°39' W 074°06'1 1.1
2018-Sep-14 15:01N 40°38' W 074°08'0 0.0
2018-Sep-14 14:37N 40°38' W 074°08'0 0.0
2018-Sep-14 14:25N 40°38' W 074°08'0 0.0
2018-Sep-14 13:49N 40°38' W 074°08'0 0.0
2018-Sep-14 12:03N 40°38' W 074°08'0 0.0
2018-Sep-14 11:49N 40°38' W 074°08'0 0.0
2018-Sep-14 11:30N 40°38' W 074°08'0 0.0
2018-Sep-14 11:03N 40°38' W 074°08'0 0.0
2018-Sep-14 11:00N 40°38' W 074°08'0 0.0
2018-Sep-14 10:30N 40°38' W 074°08'0 0.0
2018-Sep-14 10:03N 40°38' W 074°08'0 0.0
2018-Sep-14 10:00N 40°38' W 074°08'0 0.0
2018-Sep-14 09:30N 40°38' W 074°08'0 0.0
2018-Sep-14 09:03N 40°38' W 074°08'0 0.0
2018-Sep-14 08:59N 40°38' W 074°08'0 0.0
2018-Sep-14 08:30N 40°38' W 074°08'0 0.0
2018-Sep-14 08:03N 40°38' W 074°08'0 0.0
2018-Sep-14 08:00N 40°38' W 074°08'0 0.0
2018-Sep-14 07:30N 40°38' W 074°08'0 0.0
2018-Sep-14 06:58N 40°38' W 074°08'0 0.0
2018-Sep-14 06:30N 40°38' W 074°08'0 0.0
2018-Sep-14 05:40N 40°38' W 074°08'1 3.1
2018-Sep-14 05:30N 40°39' W 074°07'0 0.4
2018-Sep-14 05:03N 40°39' W 074°07'0 0.0
2018-Sep-14 05:00N 40°39' W 074°07'0 0.0
2018-Sep-14 04:28N 40°39' W 074°07'1 1.6
2018-Sep-14 04:03N 40°38' W 074°08'0 0.0
2018-Sep-14 03:57N 40°38' W 074°08'2 5.5
2018-Sep-14 03:30N 40°39' W 074°11'3 5.8
2018-Sep-14 03:02N 40°36' W 074°12'0 1.3
2018-Sep-14 02:55N 40°36' W 074°12'0 0.0
2018-Sep-14 01:59N 40°36' W 074°12'3 5.5
2018-Sep-14 01:27N 40°39' W 074°11'3 4.6
2018-Sep-14 00:54N 40°38' W 074°08'0 0.0
2018-Sep-14 00:28N 40°38' W 074°08'0 0.0
2018-Sep-14 00:01N 40°38' W 074°08'0 0.0
2018-Sep-13 23:59N 40°38' W 074°08'0 0.0
2018-Sep-13 23:30N 40°38' W 074°08'0 0.0
2018-Sep-13 22:59N 40°38' W 074°08'0 0.0
2018-Sep-13 22:29N 40°38' W 074°08'0 0.0
2018-Sep-13 21:59N 40°38' W 074°08'0 0.0
2018-Sep-13 21:23N 40°38' W 074°08'0 0.0
2018-Sep-13 20:59N 40°38' W 074°08'0 0.0
2018-Sep-13 20:29N 40°38' W 074°08'0 0.1
2018-Sep-13 20:00N 40°38' W 074°08'3 5.8
2018-Sep-13 19:26N 40°42' W 074°08'1 1.6
2018-Sep-13 19:03N 40°41' W 074°08'0 5.5
2018-Sep-13 18:58N 40°41' W 074°08'2 4.4
2018-Sep-13 18:29N 40°39' W 074°07'0 0.2
2018-Sep-13 16:48N 40°38' W 074°08'1 2.4
2018-Sep-13 16:19N 40°39' W 074°06'0 0.0
2018-Sep-13 16:01N 40°39' W 074°06'0 0.0
2018-Sep-13 15:55N 40°39' W 074°06'0 0.2
2018-Sep-13 15:28N 40°39' W 074°06'0 1.0
2018-Sep-13 15:03N 40°39' W 074°06'0 1.2
2018-Sep-13 15:00N 40°39' W 074°06'1 2.1
2018-Sep-13 14:19N 40°38' W 074°08'0 0.0
2018-Sep-13 13:58N 40°38' W 074°08'0 0.0
2018-Sep-13 13:28N 40°38' W 074°08'0 0.0
2018-Sep-13 13:01N 40°38' W 074°08'0 0.0
2018-Sep-13 12:58N 40°38' W 074°08'0 0.0
2018-Sep-13 12:22N 40°38' W 074°08'0 0.0
2018-Sep-13 11:58N 40°38' W 074°08'0 0.0
2018-Sep-13 11:28N 40°38' W 074°08'0 0.0
2018-Sep-13 11:01N 40°38' W 074°08'0 0.0
2018-Sep-13 10:52N 40°38' W 074°08'  
Track history (hours):
 
Tides and Currents Weather Stations Pressure Air Temp Water Temp Dewpoint Dewpoint Depression Visibility Wind Speed Wind Dir Waves Ship Positions

Turecamo Girls

Owner: Moran Towing Corporation, New Canaan, CT. More information available from US FCC via Universal Licensing System and Coast Guard Vessel Documentation Center.

Last reported at 2018-Sep-23 10:31 UTC. Time now 2018-Sep-23 10:40 UTC.
Position N 40°38' W 074°08'.

Length 30 m; draft 4 m.

Type: Tug. MMSI: 366946710.

Date/timePositionNaut miles runAvg speedWind from/ knotsBaromVisibWave heightAir tempDewpointWater temp
2018-Sep-23 10:31N 40°38' W 074°08'0 0.0
2018-Sep-23 10:04N 40°38' W 074°08'0 0.0
2018-Sep-23 10:01N 40°38' W 074°08'0 0.0
2018-Sep-23 09:30N 40°38' W 074°08'0 0.0
2018-Sep-23 09:03N 40°38' W 074°08'0 1.8
2018-Sep-23 09:00N 40°39' W 074°08'4 3.2
2018-Sep-23 07:54N 40°37' W 074°12'1 2.8
2018-Sep-23 07:29N 40°38' W 074°11'3 6.0
2018-Sep-23 07:01N 40°38' W 074°08'0 0.0
2018-Sep-23 06:58N 40°38' W 074°08'0 0.0
2018-Sep-23 06:28N 40°38' W 074°08'0 0.0
2018-Sep-23 05:58N 40°38' W 074°08'0 0.0
2018-Sep-23 05:28N 40°38' W 074°08'0 0.0
2018-Sep-23 05:01N 40°38' W 074°08'0 0.0
2018-Sep-23 04:58N 40°38' W 074°08'0 0.0
2018-Sep-23 04:28N 40°38' W 074°08'0 0.0
2018-Sep-23 04:01N 40°38' W 074°08'0 0.0
2018-Sep-23 03:58N 40°38' W 074°08'0 0.0
2018-Sep-23 03:28N 40°38' W 074°08'0 0.0
2018-Sep-23 03:01N 40°38' W 074°08'0 0.0
2018-Sep-23 02:58N 40°38' W 074°08'0 0.0
2018-Sep-23 02:28N 40°38' W 074°08'0 0.0
2018-Sep-23 02:01N 40°38' W 074°08'0 0.1
2018-Sep-23 01:58N 40°38' W 074°08'0 0.0
2018-Sep-23 01:28N 40°38' W 074°08'0 0.0
2018-Sep-23 01:01N 40°38' W 074°08'0 0.0
2018-Sep-23 00:58N 40°38' W 074°08'0 0.0
2018-Sep-23 00:28N 40°38' W 074°08'0 0.0
2018-Sep-23 00:01N 40°38' W 074°08'0 0.0
2018-Sep-22 23:58N 40°38' W 074°08'0 0.0
2018-Sep-22 23:28N 40°38' W 074°08'0 1.2
2018-Sep-22 23:03N 40°39' W 074°08'0 7.9
2018-Sep-22 23:00N 40°39' W 074°09'5 3.4
2018-Sep-22 21:32N 40°34' W 074°13'1 3.1
2018-Sep-22 21:10N 40°36' W 074°12'1 0.9
2018-Sep-22 20:21N 40°36' W 074°12'1 4.4
2018-Sep-22 20:03N 40°38' W 074°12'0 9.4
2018-Sep-22 20:00N 40°38' W 074°12'3 5.9
2018-Sep-22 19:28N 40°38' W 074°08'0 0.0
2018-Sep-22 19:01N 40°38' W 074°08'0 0.0
2018-Sep-22 18:55N 40°38' W 074°08'0 0.0
2018-Sep-22 17:40N 40°38' W 074°08'0 0.0
2018-Sep-22 17:19N 40°38' W 074°08'0 0.0
2018-Sep-22 17:01N 40°38' W 074°08'0 0.1
2018-Sep-22 16:58N 40°38' W 074°08'0 0.0
2018-Sep-22 16:31N 40°38' W 074°08'0 0.0
2018-Sep-22 16:01N 40°38' W 074°08'0 0.0
2018-Sep-22 15:30N 40°38' W 074°08'0 0.0
2018-Sep-22 14:57N 40°38' W 074°08'0 0.0
2018-Sep-22 14:24N 40°38' W 074°08'0 0.0
2018-Sep-22 12:58N 40°38' W 074°08'3 6.5
2018-Sep-22 12:29N 40°38' W 074°04'1 2.3
2018-Sep-22 12:03N 40°37' W 074°03'0 2.3
2018-Sep-22 12:00N 40°37' W 074°03'3 5.2
2018-Sep-22 11:30N 40°39' W 074°05'1 1.8
2018-Sep-22 11:03N 40°39' W 074°06'0 0.0
2018-Sep-22 11:00N 40°39' W 074°06'1 2.9
2018-Sep-22 10:30N 40°38' W 074°08'0 0.0
2018-Sep-22 10:01N 40°38' W 074°08'0 0.0
2018-Sep-22 09:58N 40°38' W 074°08'0 0.0
2018-Sep-22 09:28N 40°38' W 074°08'3 7.2
2018-Sep-22 09:03N 40°39' W 074°04'111.3
2018-Sep-22 09:00N 40°39' W 074°03'2 3.5
2018-Sep-22 08:30N 40°40' W 074°01'0 0.2
2018-Sep-22 08:03N 40°40' W 074°01'0 0.5
2018-Sep-22 08:00N 40°40' W 074°01'2 3.7
2018-Sep-22 07:30N 40°38' W 074°03'2 4.5
2018-Sep-22 07:03N 40°39' W 074°05'0 9.8
2018-Sep-22 07:01N 40°39' W 074°06'2 2.4
2018-Sep-22 06:16N 40°38' W 074°08'0 0.0
2018-Sep-22 06:01N 40°38' W 074°08'0 0.1
2018-Sep-22 05:55N 40°38' W 074°08'0 0.0
2018-Sep-22 05:13N 40°38' W 074°08'1 5.6
2018-Sep-22 05:03N 40°39' W 074°07'0 3.4
2018-Sep-22 05:00N 40°39' W 074°07'1 0.6
2018-Sep-22 03:39N 40°38' W 074°08'0 0.0
2018-Sep-22 03:27N 40°38' W 074°08'0 0.0
2018-Sep-22 02:39N 40°38' W 074°08'0 0.0
2018-Sep-22 02:21N 40°38' W 074°08'0 0.0
2018-Sep-22 01:57N 40°38' W 074°08'0 0.0
2018-Sep-22 01:21N 40°38' W 074°08'0 0.0
2018-Sep-21 23:51N 40°38' W 074°08'0 0.0
2018-Sep-21 21:36N 40°38' W 074°08'0 0.2
2018-Sep-21 21:27N 40°38' W 074°08'3 7.2
2018-Sep-21 21:04N 40°41' W 074°08'110.3
2018-Sep-21 21:01N 40°42' W 074°07'1 1.7
2018-Sep-21 20:29N 40°43' W 074°07'2 5.3
2018-Sep-21 20:03N 40°40' W 074°08'0 5.4
2018-Sep-21 20:01N 40°40' W 074°08'3 5.4
2018-Sep-21 19:26N 40°38' W 074°11'2 2.2
2018-Sep-21 18:25N 40°36' W 074°12'2 6.7
2018-Sep-21 18:03N 40°39' W 074°11'0 7.6
2018-Sep-21 18:00N 40°39' W 074°11'2 4.3
2018-Sep-21 17:28N 40°38' W 074°08'0 0.0
2018-Sep-21 17:01N 40°38' W 074°08'0 0.0
2018-Sep-21 16:58N 40°38' W 074°08'0 0.0
2018-Sep-21 16:27N 40°38' W 074°08'0 0.0
2018-Sep-21 16:03N 40°38' W 074°08'0 0.1
2018-Sep-21 16:00N 40°38' W 074°08'0 0.0
2018-Sep-21 15:30N 40°38' W 074°08'0 0.0
2018-Sep-21 14:51N 40°38' W 074°08'0 0.0
2018-Sep-21 14:27N 40°38' W 074°08'0 0.0
2018-Sep-21 13:30N 40°38' W 074°08'0 0.0
2018-Sep-21 13:00N 40°38' W 074°08'0 0.0
2018-Sep-21 12:30N 40°38' W 074°08'0 0.0
2018-Sep-21 12:03N 40°38' W 074°08'0 0.1
2018-Sep-21 11:57N 40°38' W 074°08'0 0.0
2018-Sep-21 11:27N 40°38' W 074°08'0 0.0
2018-Sep-21 11:03N 40°38' W 074°08'0 0.0
2018-Sep-21 10:51N 40°38' W 074°08'1 3.4
2018-Sep-21 10:30N 40°39' W 074°09'8 5.1
2018-Sep-21 08:59N 40°32' W 074°15'1 0.7
2018-Sep-21 08:13N 40°33' W 074°15'2 9.2
2018-Sep-21 08:01N 40°34' W 074°13'110.4
2018-Sep-21 07:57N 40°34' W 074°13'4 9.8
2018-Sep-21 07:30N 40°39' W 074°11'2 5.1
2018-Sep-21 07:01N 40°38' W 074°08'0 0.0
2018-Sep-21 06:58N 40°38' W 074°08'0 0.0
2018-Sep-21 06:28N 40°38' W 074°08'0 0.0
2018-Sep-21 06:01N 40°38' W 074°08'0 0.0
2018-Sep-21 05:58N 40°38' W 074°08'0 0.0
2018-Sep-21 05:25N 40°38' W 074°08'0 0.0
2018-Sep-21 05:01N 40°38' W 074°08'0 0.0
2018-Sep-21 04:52N 40°38' W 074°08'0 0.0
2018-Sep-21 04:28N 40°38' W 074°08'0 0.0
2018-Sep-21 04:01N 40°38' W 074°08'0 0.0
2018-Sep-21 03:55N 40°38' W 074°08'1 1.8
2018-Sep-21 03:30N 40°39' W 074°07'1 1.5
2018-Sep-21 03:02N 40°39' W 074°06'0 0.0
2018-Sep-21 03:00N 40°39' W 074°06'0 0.0
2018-Sep-21 02:30N 40°39' W 074°06'1 2.3
2018-Sep-21 01:58N 40°39' W 074°08'3 6.1
2018-Sep-21 01:28N 40°38' W 074°12'5 5.1
2018-Sep-21 00:26N 40°33' W 074°14'1 0.2
2018-Sep-20 19:33N 40°34' W 074°13'110.4
2018-Sep-20 19:30N 40°35' W 074°13'4 8.8
2018-Sep-20 19:03N 40°38' W 074°12'0 0.1
2018-Sep-20 19:00N 40°38' W 074°12'3 5.9
2018-Sep-20 18:30N 40°38' W 074°08'0 0.0
2018-Sep-20 18:03N 40°38' W 074°08'0 0.1
2018-Sep-20 18:00N 40°38' W 074°08'0 0.0
2018-Sep-20 17:30N 40°38' W 074°08'3 7.5
2018-Sep-20 17:03N 40°39' W 074°04'112.3
2018-Sep-20 17:00N 40°40' W 074°03'713.1
2018-Sep-20 16:30N 40°46' W 074°00'613.6
2018-Sep-20 16:03N 40°52' W 073°57'113.2
2018-Sep-20 15:59N 40°53' W 073°56'6 0.8
2018-Sep-20 08:49N 40°58' W 073°54'3 8.4
2018-Sep-20 08:29N 40°55' W 073°55'4 8.6
2018-Sep-20 08:03N 40°52' W 073°56'0 9.6
2018-Sep-20 08:00N 40°52' W 073°57'4 8.7
2018-Sep-20 07:29N 40°47' W 073°59'4 9.2
2018-Sep-20 07:03N 40°44' W 074°01'0 9.8
2018-Sep-20 07:00N 40°43' W 074°01'5 9.8
2018-Sep-20 06:30N 40°39' W 074°05'2 4.9
2018-Sep-20 06:02N 40°38' W 074°08'0 0.1
2018-Sep-20 05:59N 40°38' W 074°08'0 0.0
2018-Sep-20 05:29N 40°38' W 074°08'0 0.0
2018-Sep-20 05:02N 40°38' W 074°08'0 0.0
2018-Sep-20 04:53N 40°38' W 074°08'0 0.0
2018-Sep-20 04:29N 40°38' W 074°08'0 0.0
2018-Sep-20 04:02N 40°38' W 074°08'0 0.0
2018-Sep-20 03:59N 40°38' W 074°08'0 0.0
2018-Sep-20 03:20N 40°38' W 074°08'0 0.0
2018-Sep-20 03:02N 40°38' W 074°08'0 0.1
2018-Sep-20 02:56N 40°38' W 074°08'0 0.0
2018-Sep-20 02:11N 40°38' W 074°08'0 0.0
2018-Sep-20 02:02N 40°38' W 074°08'0 0.0
2018-Sep-20 01:53N 40°38' W 074°08'0 0.0
2018-Sep-20 01:26N 40°38' W 074°08'0 0.0
2018-Sep-20 00:59N 40°38' W 074°08'1 1.9
2018-Sep-20 00:26N 40°39' W 074°07'0 0.0
2018-Sep-19 23:59N 40°39' W 074°07'0 0.0
2018-Sep-19 23:29N 40°39' W 074°07'0 0.0
2018-Sep-19 23:03N 40°39' W 074°07'0 0.1
2018-Sep-19 23:00N 40°39' W 074°07'1 1.5
2018-Sep-19 22:19N 40°38' W 074°08'0 0.0
2018-Sep-19 22:01N 40°38' W 074°08'0 0.1
2018-Sep-19 21:58N 40°38' W 074°08'1 2.0
2018-Sep-19 21:30N 40°39' W 074°07'0 0.8
2018-Sep-19 20:55N 40°39' W 074°06'0 0.7
2018-Sep-19 20:30N 40°39' W 074°06'0 0.4
2018-Sep-19 19:59N 40°39' W 074°05'2 3.6
2018-Sep-19 19:29N 40°38' W 074°08'0 0.0
2018-Sep-19 19:02N 40°38' W 074°08'0 0.0
2018-Sep-19 18:59N 40°38' W 074°08'0 0.0
2018-Sep-19 18:29N 40°38' W 074°08'0 0.0
2018-Sep-19 17:59N 40°38' W 074°08'0 0.0
2018-Sep-19 17:26N 40°38' W 074°08'0 0.0
2018-Sep-19 17:02N 40°38' W 074°08'0 0.0
2018-Sep-19 16:44N 40°38' W 074°08'0 0.0
2018-Sep-19 16:23N 40°38' W 074°08'0 0.0
2018-Sep-19 16:02N 40°38' W 074°08'0 0.1
2018-Sep-19 15:59N 40°38' W 074°08'0 0.0
2018-Sep-19 15:23N 40°38' W 074°08'0 0.0
2018-Sep-19 15:02N 40°38' W 074°08'0 0.1
2018-Sep-19 14:59N 40°38' W 074°08'0 0.0
2018-Sep-19 14:02N 40°38' W 074°08'0 0.0
2018-Sep-19 13:26N 40°38' W 074°08'0 0.0
2018-Sep-19 12:50N 40°38' W 074°08'0 0.0
2018-Sep-19 12:29N 40°38' W 074°08'0 0.0
2018-Sep-19 12:02N 40°38' W 074°08'0 0.0
2018-Sep-19 11:59N 40°38' W 074°08'0 0.0
2018-Sep-19 11:26N 40°38' W 074°08'0 0.0
2018-Sep-19 10:59N 40°38' W 074°08'0 0.0
2018-Sep-19 10:29N 40°38' W 074°08'0 0.0
2018-Sep-19 10:02N 40°38' W 074°08'0 0.0
2018-Sep-19 09:59N 40°38' W 074°08'1 1.2
2018-Sep-19 09:14N 40°39' W 074°07'1 4.2
2018-Sep-19 09:01N 40°38' W 074°08'0 0.0
2018-Sep-19 08:52N 40°38' W 074°08'0 0.0
2018-Sep-19 08:28N 40°38' W 074°08'0 0.0
2018-Sep-19 07:58N 40°38' W 074°08'0 0.0
2018-Sep-19 07:30N 40°38' W 074°08'3 7.5
2018-Sep-19 07:03N 40°38' W 074°12'0 0.1
2018-Sep-19 06:40N 40°38' W 074°12'1 8.8
2018-Sep-19 06:30N 40°39' W 074°11'2 4.5
2018-Sep-19 06:00N 40°38' W 074°08'0 0.0
2018-Sep-19 05:30N 40°38' W 074°08'0 0.0
2018-Sep-19 05:00N 40°38' W 074°08'0 0.0
2018-Sep-19 04:30N 40°38' W 074°08'0 0.0
2018-Sep-19 04:00N 40°38' W 074°08'0 0.0
2018-Sep-19 03:30N 40°38' W 074°08'0 0.0
2018-Sep-19 02:54N 40°38' W 074°08'0 0.0
2018-Sep-19 02:30N 40°38' W 074°08'0 0.0
2018-Sep-19 02:00N 40°38' W 074°08'0 0.0
2018-Sep-19 01:18N 40°38' W 074°08'0 0.0
2018-Sep-19 01:00N 40°38' W 074°08'0 0.0
2018-Sep-19 00:30N 40°38' W 074°08'0 0.0
2018-Sep-19 00:00N 40°38' W 074°08'0 0.0
2018-Sep-18 23:24N 40°38' W 074°08'0 0.0
2018-Sep-18 23:00N 40°38' W 074°08'0 0.0
2018-Sep-18 22:30N 40°38' W 074°08'1 2.5
2018-Sep-18 22:03N 40°39' W 074°09'111.9
2018-Sep-18 22:00N 40°40' W 074°08'3 6.3
2018-Sep-18 21:30N 40°43' W 074°07'1 1.4
2018-Sep-18 21:03N 40°42' W 074°07'0 0.2
2018-Sep-18 21:01N 40°42' W 074°07'2 3.4
2018-Sep-18 20:30N 40°41' W 074°08'2 4.9
2018-Sep-18 20:03N 40°38' W 074°09'0 4.4
2018-Sep-18 20:00N 40°39' W 074°08'2 3.3
2018-Sep-18 19:29N 40°39' W 074°11'5 2.5
2018-Sep-18 17:20N 40°34' W 074°13'2 5.7
2018-Sep-18 17:02N 40°35' W 074°12'0 4.6
2018-Sep-18 17:00N 40°35' W 074°12'3 5.3
2018-Sep-18 16:30N 40°38' W 074°12'2 5.5
2018-Sep-18 16:03N 40°38' W 074°09'0 7.6
2018-Sep-18 16:00N 40°39' W 074°08'4 7.3
2018-Sep-18 15:30N 40°39' W 074°03'3 6.2
2018-Sep-18 15:03N 40°36' W 074°02'0 5.4
2018-Sep-18 15:00N 40°36' W 074°02'1 1.9
2018-Sep-18 14:29N 40°35' W 074°02'0 0.3
2018-Sep-18 14:00N 40°35' W 074°02'0 0.2
2018-Sep-18 13:30N 40°35' W 074°02'0 0.2
2018-Sep-18 13:02N 40°35' W 074°02'0 0.7
2018-Sep-18 13:00N 40°35' W 074°02'4 8.9
2018-Sep-18 12:30N 40°39' W 074°04'510.6
2018-Sep-18 12:03N 40°39' W 074°11'0 9.0
2018-Sep-18 12:00N 40°39' W 074°11'5 8.5
2018-Sep-18 11:23N 40°33' W 074°13'1 0.4
2018-Sep-18 09:31N 40°34' W 074°13'011.6
2018-Sep-18 09:29N 40°35' W 074°13'410.1
2018-Sep-18 09:03N 40°39' W 074°11'0 9.0
2018-Sep-18 09:00N 40°39' W 074°11'2 3.5
2018-Sep-18 08:25N 40°38' W 074°08'0 0.0
2018-Sep-18 08:04N 40°38' W 074°08'0 0.0
2018-Sep-18 07:58N 40°38' W 074°08'0 0.0
2018-Sep-18 07:28N 40°38' W 074°08'0 0.0
2018-Sep-18 07:03N 40°38' W 074°08'0 0.0
2018-Sep-18 06:57N 40°38' W 074°08'0 0.0
2018-Sep-18 06:27N 40°38' W 074°08'0 0.0
2018-Sep-18 06:03N 40°38' W 074°08'0 0.1
2018-Sep-18 06:00N 40°38' W 074°08'0 0.0
2018-Sep-18 05:27N 40°38' W 074°08'0 0.0
2018-Sep-18 05:03N 40°38' W 074°08'0 0.1
2018-Sep-18 04:57N 40°38' W 074°08'0 0.0
2018-Sep-18 04:27N 40°38' W 074°08'0 0.0
2018-Sep-18 04:03N 40°38' W 074°08'0 0.0
2018-Sep-18 04:00N 40°38' W 074°08'0 0.0
2018-Sep-18 03:27N 40°38' W 074°08'0 0.0
2018-Sep-18 03:03N 40°38' W 074°08'0 0.0
2018-Sep-18 02:57N 40°38' W 074°08'0 0.0
2018-Sep-18 02:27N 40°38' W 074°08'0 0.0
2018-Sep-18 02:03N 40°38' W 074°08'0 0.0
2018-Sep-18 02:00N 40°38' W 074°08'0 0.0
2018-Sep-18 01:31N 40°38' W 074°08'0 0.0
2018-Sep-18 01:03N 40°38' W 074°08'0 0.0
2018-Sep-18 01:00N 40°38' W 074°08'0 0.0
2018-Sep-18 00:31N 40°38' W 074°08'2 3.7
2018-Sep-18 00:03N 40°39' W 074°10'0 0.0
2018-Sep-17 23:59N 40°39' W 074°10'0 0.0
2018-Sep-17 23:31N 40°39' W 074°10'0 0.0
2018-Sep-17 23:04N 40°39' W 074°10'0 0.0
2018-Sep-17 23:00N 40°39' W 074°10'0 0.0
2018-Sep-17 22:30N 40°39' W 074°10'0 0.0
2018-Sep-17 22:03N 40°39' W 074°10'0 0.0
2018-Sep-17 21:59N 40°39' W 074°10'0 0.0
2018-Sep-17 21:30N 40°39' W 074°10'2 3.8
2018-Sep-17 21:02N 40°38' W 074°12'110.0
2018-Sep-17 20:59N 40°37' W 074°12'4 8.6
2018-Sep-17 20:30N 40°33' W 074°14'0 0.1
2018-Sep-17 19:46N 40°34' W 074°14'2 7.3
2018-Sep-17 19:27N 40°35' W 074°12'3 7.8
2018-Sep-17 19:03N 40°38' W 074°12'0 0.1
2018-Sep-17 18:59N 40°38' W 074°12'3 6.0
2018-Sep-17 18:29N 40°38' W 074°08'0 0.0
2018-Sep-17 17:59N 40°38' W 074°08'0 0.0
2018-Sep-17 17:23N 40°38' W 074°08'0 0.0
2018-Sep-17 17:02N 40°38' W 074°08'0 0.0
2018-Sep-17 16:59N 40°38' W 074°08'0 0.0
2018-Sep-17 16:29N 40°38' W 074°08'0 0.0
2018-Sep-17 16:02N 40°38' W 074°08'0 0.0
2018-Sep-17 15:56N 40°38' W 074°08'0 0.0
2018-Sep-17 15:29N 40°38' W 074°08'0 0.0
2018-Sep-17 14:59N 40°38' W 074°08'0 0.0
2018-Sep-17 14:29N 40°38' W 074°08'0 0.0
2018-Sep-17 13:59N 40°38' W 074°08'0 0.0
2018-Sep-17 13:29N 40°38' W 074°08'0 0.0
2018-Sep-17 13:02N 40°38' W 074°08'0 0.0
2018-Sep-17 12:59N 40°38' W 074°08'0 0.0
2018-Sep-17 12:23N 40°38' W 074°08'0 0.0
2018-Sep-17 12:02N 40°38' W 074°08'0 0.1
2018-Sep-17 11:59N 40°38' W 074°08'0 0.0
2018-Sep-17 11:29N 40°38' W 074°08'0 0.0
2018-Sep-17 11:03N 40°38' W 074°08'0 0.1
2018-Sep-17 11:00N 40°38' W 074°08'3 5.7
2018-Sep-17 10:29N 40°41' W 074°08'0 0.6
2018-Sep-17 10:03N 40°41' W 074°08'0 3.5
2018-Sep-17 10:00N 40°41' W 074°08'2 4.7
2018-Sep-17 09:29N 40°39' W 074°07'0 0.2
2018-Sep-17 07:46N 40°38' W 074°08'0 0.0
2018-Sep-17 07:22N 40°38' W 074°08'0 0.0
2018-Sep-17 06:58N 40°38' W 074°08'0 0.0
2018-Sep-17 06:22N 40°38' W 074°08'0 0.0
2018-Sep-17 06:01N 40°38' W 074°08'0 0.1
2018-Sep-17 05:58N 40°38' W 074°08'0 0.0
2018-Sep-17 05:25N 40°38' W 074°08'0 0.0
2018-Sep-17 05:01N 40°38' W 074°08'0 0.0
2018-Sep-17 04:55N 40°38' W 074°08'0 0.0
2018-Sep-17 04:25N 40°38' W 074°08'0 0.0
2018-Sep-17 04:01N 40°38' W 074°08'0 0.0
2018-Sep-17 03:43N 40°38' W 074°08'0 0.0
2018-Sep-17 03:13N 40°38' W 074°08'0 0.0
2018-Sep-17 03:01N 40°38' W 074°08'0 0.0
2018-Sep-17 02:55N 40°38' W 074°08'0 0.0
2018-Sep-17 02:25N 40°38' W 074°08'0 0.0
2018-Sep-17 02:01N 40°38' W 074°08'0 0.0
2018-Sep-17 01:49N 40°38' W 074°08'0 0.0
2018-Sep-17 01:25N 40°38' W 074°08'0 0.0
2018-Sep-17 00:55N 40°38' W 074°08'0 0.0
2018-Sep-17 00:25N 40°38' W 074°08'0 0.0
2018-Sep-17 00:03N 40°38' W 074°08'0 5.0
2018-Sep-16 23:59N 40°39' W 074°08'8 2.7
2018-Sep-16 21:03N 40°32' W 074°15'0 0.1
2018-Sep-16 18:02N 40°33' W 074°15'1 0.3
2018-Sep-16 16:24N 40°32' W 074°15'0 0.2
2018-Sep-16 14:10N 40°33' W 074°15'3 3.9
2018-Sep-16 13:29N 40°35' W 074°13'0 1.0
2018-Sep-16 13:03N 40°35' W 074°13'0 0.0
2018-Sep-16 13:00N 40°35' W 074°13'3 5.9
2018-Sep-16 12:30N 40°38' W 074°12'3 7.4
2018-Sep-16 12:03N 40°38' W 074°08'0 0.0
2018-Sep-16 12:00N 40°38' W 074°08'2 4.4
2018-Sep-16 11:30N 40°39' W 074°05'1 2.0
2018-Sep-16 11:03N 40°39' W 074°06'0 9.1
2018-Sep-16 11:00N 40°39' W 074°07'1 1.6
2018-Sep-16 10:29N 40°38' W 074°08'0 0.0
2018-Sep-16 10:02N 40°38' W 074°08'0 0.0
2018-Sep-16 09:59N 40°38' W 074°08'0 0.0
2018-Sep-16 09:29N 40°38' W 074°08'0 0.0
2018-Sep-16 09:02N 40°38' W 074°08'0 0.0
2018-Sep-16 08:59N 40°38' W 074°08'0 0.0
2018-Sep-16 08:26N 40°38' W 074°08'0 0.0
2018-Sep-16 08:02N 40°38' W 074°08'0 0.0
2018-Sep-16 07:56N 40°38' W 074°08'0 0.0
2018-Sep-16 07:29N 40°38' W 074°08'0 0.0
2018-Sep-16 07:02N 40°38' W 074°08'0 0.0
2018-Sep-16 06:59N 40°38' W 074°08'0 0.0
2018-Sep-16 06:29N 40°38' W 074°08'0 0.0
2018-Sep-16 06:02N 40°38' W 074°08'0 0.0
2018-Sep-16 05:59N 40°38' W 074°08'0 0.0
2018-Sep-16 05:29N 40°38' W 074°08'0 0.0
2018-Sep-16 05:02N 40°38' W 074°08'0 0.0
2018-Sep-16 04:56N 40°38' W 074°08'0 0.0
2018-Sep-16 04:29N 40°38' W 074°08'0 0.0
2018-Sep-16 04:02N 40°38' W 074°08'0 0.0
2018-Sep-16 03:56N 40°38' W 074°08'0 0.0
2018-Sep-16 03:29N 40°38' W 074°08'0 0.0
2018-Sep-16 03:02N 40°38' W 074°08'0 0.0
2018-Sep-16 02:59N 40°38' W 074°08'0 0.0
2018-Sep-16 02:29N 40°38' W 074°08'0 0.0
2018-Sep-16 02:02N 40°38' W 074°08'0 0.0
2018-Sep-16 01:59N 40°38' W 074°08'0 0.0
2018-Sep-16 01:29N 40°38' W 074°08'0 0.0
2018-Sep-16 01:02N 40°38' W 074°08'0 0.0
2018-Sep-16 00:56N 40°38' W 074°08'0 0.0
2018-Sep-16 00:26N 40°38' W 074°08'0 0.0
2018-Sep-16 00:02N 40°38' W 074°08'0 0.0
2018-Sep-15 23:57N 40°38' W 074°08'2 4.8
2018-Sep-15 23:30N 40°39' W 074°05'1 1.9
2018-Sep-15 23:03N 40°39' W 074°06'0 8.9
2018-Sep-15 23:00N 40°39' W 074°07'1 1.5
2018-Sep-15 22:24N 40°38' W 074°08'0 0.0
2018-Sep-15 22:03N 40°38' W 074°08'0 0.0
2018-Sep-15 22:00N 40°38' W 074°08'0 0.0
2018-Sep-15 21:30N 40°38' W 074°08'0 0.0
2018-Sep-15 21:03N 40°38' W 074°08'0 0.0
2018-Sep-15 21:00N 40°38' W 074°08'0 0.0
2018-Sep-15 20:30N 40°38' W 074°08'0 0.2
2018-Sep-15 20:03N 40°39' W 074°08'0 6.0
2018-Sep-15 20:00N 40°39' W 074°07'3 6.7
2018-Sep-15 19:30N 40°39' W 074°03'1 2.5
2018-Sep-15 19:02N 40°40' W 074°04'0 0.1
2018-Sep-15 18:59N 40°40' W 074°04'0 0.0
2018-Sep-15 18:29N 40°40' W 074°04'0 0.0
2018-Sep-15 18:02N 40°40' W 074°04'0 0.0
2018-Sep-15 17:59N 40°40' W 074°04'0 0.0
2018-Sep-15 17:26N 40°40' W 074°04'0 0.0
2018-Sep-15 17:02N 40°40' W 074°04'0 0.0
2018-Sep-15 16:59N 40°40' W 074°04'1 2.2
2018-Sep-15 16:30N 40°39' W 074°03'3 7.5
2018-Sep-15 16:03N 40°38' W 074°08'0 0.0
2018-Sep-15 15:57N 40°38' W 074°08'0 0.0
2018-Sep-15 15:27N 40°38' W 074°08'0 0.0
2018-Sep-15 13:42N 40°38' W 074°08'0 0.0
2018-Sep-15 13:30N 40°38' W 074°08'0 0.0
2018-Sep-15 12:33N 40°38' W 074°08'0 0.0
2018-Sep-15 12:27N 40°38' W 074°08'0 0.0
2018-Sep-15 11:54N 40°38' W 074°08'0 0.0
2018-Sep-15 11:27N 40°38' W 074°08'0 0.0
2018-Sep-15 11:03N 40°38' W 074°08'0 0.0
2018-Sep-15 10:57N 40°38' W 074°08'0 0.0
2018-Sep-15 10:27N 40°38' W 074°08'2 5.0
2018-Sep-15 10:04N 40°40' W 074°08'010.0
2018-Sep-15 10:01N 40°41' W 074°08'2 3.9
2018-Sep-15 09:31N 40°43' W 074°07'1 1.5
2018-Sep-15 09:03N 40°42' W 074°07'0 5.5
2018-Sep-15 09:01N 40°42' W 074°07'1 1.5
2018-Sep-15 08:28N 40°41' W 074°08'3 6.1
2018-Sep-15 08:02N 40°39' W 074°08'0 2.2
2018-Sep-15 08:00N 40°38' W 074°08'0 0.0
2018-Sep-15 07:30N 40°38' W 074°08'0 0.0
2018-Sep-15 07:03N 40°38' W 074°08'0 0.1
2018-Sep-15 07:01N 40°38' W 074°08'0 0.0
2018-Sep-15 06:30N 40°38' W 074°08'0 0.0
2018-Sep-15 06:04N 40°38' W 074°08'0 0.0
2018-Sep-15 06:01N 40°38' W 074°08'0 0.0
2018-Sep-15 05:30N 40°38' W 074°08'0 0.3
2018-Sep-15 05:04N 40°39' W 074°08'0 8.7
2018-Sep-15 05:00N 40°39' W 074°07'0 0.7
2018-Sep-15 04:30N 40°39' W 074°07'1 2.2
2018-Sep-15 04:04N 40°38' W 074°08'0 0.0
2018-Sep-15 04:00N 40°38' W 074°08'0 0.0
2018-Sep-15 03:31N 40°38' W 074°08'0 0.0
2018-Sep-15 03:03N 40°38' W 074°08'0 0.0
2018-Sep-15 03:01N 40°38' W 074°08'0 0.0
2018-Sep-15 02:31N 40°38' W 074°08'0 0.0
2018-Sep-15 02:04N 40°38' W 074°08'0 0.0
2018-Sep-15 02:00N 40°38' W 074°08'0 0.0
2018-Sep-15 01:31N 40°38' W 074°08'0 0.0
2018-Sep-15 01:04N 40°38' W 074°08'0 0.0
2018-Sep-15 01:01N 40°38' W 074°08'0 0.0
2018-Sep-15 00:31N 40°38' W 074°08'0 0.0
2018-Sep-15 00:03N 40°38' W 074°08'0 0.2
2018-Sep-15 00:00N 40°38' W 074°08'0 0.0
2018-Sep-14 23:31N 40°38' W 074°08'0 0.0
2018-Sep-14 23:02N 40°38' W 074°08'0 0.0
2018-Sep-14 23:00N 40°38' W 074°08'0 0.0
2018-Sep-14 22:30N 40°38' W 074°08'0 0.0
2018-Sep-14 22:04N 40°38' W 074°08'0 0.0
2018-Sep-14 22:00N 40°38' W 074°08'0 0.0
2018-Sep-14 21:30N 40°38' W 074°08'0 0.0
2018-Sep-14 21:03N 40°38' W 074°08'0 0.0
2018-Sep-14 21:00N 40°38' W 074°08'0 0.0
2018-Sep-14 20:31N 40°38' W 074°08'0 0.0
2018-Sep-14 20:04N 40°38' W 074°08'0 0.0
2018-Sep-14 20:01N 40°38' W 074°08'1 2.8
2018-Sep-14 19:30N 40°39' W 074°10'6 7.9
2018-Sep-14 18:45N 40°33' W 074°13'2 2.5
2018-Sep-14 18:03N 40°32' W 074°15'0 0.7
2018-Sep-14 17:57N 40°33' W 074°15'3 5.7
2018-Sep-14 17:30N 40°34' W 074°13'4 7.7
2018-Sep-14 17:01N 40°38' W 074°12'0 7.3
2018-Sep-14 17:00N 40°38' W 074°12'3 7.0
2018-Sep-14 16:30N 40°39' W 074°08'1 2.1
2018-Sep-14 16:04N 40°39' W 074°06'0 0.0
2018-Sep-14 16:01N 40°39' W 074°06'1 1.1
2018-Sep-14 15:01N 40°38' W 074°08'0 0.0
2018-Sep-14 14:37N 40°38' W 074°08'0 0.0
2018-Sep-14 14:25N 40°38' W 074°08'0 0.0
2018-Sep-14 13:49N 40°38' W 074°08'0 0.0
2018-Sep-14 12:03N 40°38' W 074°08'0 0.0
2018-Sep-14 11:49N 40°38' W 074°08'0 0.0
2018-Sep-14 11:30N 40°38' W 074°08'0 0.0
2018-Sep-14 11:03N 40°38' W 074°08'0 0.0
2018-Sep-14 11:00N 40°38' W 074°08'0 0.0
2018-Sep-14 10:30N 40°38' W 074°08'0 0.0
2018-Sep-14 10:03N 40°38' W 074°08'0 0.0
2018-Sep-14 10:00N 40°38' W 074°08'0 0.0
2018-Sep-14 09:30N 40°38' W 074°08'0 0.0
2018-Sep-14 09:03N 40°38' W 074°08'0 0.0
2018-Sep-14 08:59N 40°38' W 074°08'0 0.0
2018-Sep-14 08:30N 40°38' W 074°08'0 0.0
2018-Sep-14 08:03N 40°38' W 074°08'0 0.0
2018-Sep-14 08:00N 40°38' W 074°08'0 0.0
2018-Sep-14 07:30N 40°38' W 074°08'0 0.0
2018-Sep-14 06:58N 40°38' W 074°08'0 0.0
2018-Sep-14 06:30N 40°38' W 074°08'0 0.0
2018-Sep-14 05:40N 40°38' W 074°08'1 3.1
2018-Sep-14 05:30N 40°39' W 074°07'0 0.4
2018-Sep-14 05:03N 40°39' W 074°07'0 0.0
2018-Sep-14 05:00N 40°39' W 074°07'0 0.0
2018-Sep-14 04:28N 40°39' W 074°07'1 1.6
2018-Sep-14 04:03N 40°38' W 074°08'0 0.0
2018-Sep-14 03:57N 40°38' W 074°08'2 5.5
2018-Sep-14 03:30N 40°39' W 074°11'3 5.8
2018-Sep-14 03:02N 40°36' W 074°12'0 1.3
2018-Sep-14 02:55N 40°36' W 074°12'0 0.0
2018-Sep-14 01:59N 40°36' W 074°12'3 5.5
2018-Sep-14 01:27N 40°39' W 074°11'3 4.6
2018-Sep-14 00:54N 40°38' W 074°08'0 0.0
2018-Sep-14 00:28N 40°38' W 074°08'0 0.0
2018-Sep-14 00:01N 40°38' W 074°08'0 0.0
2018-Sep-13 23:59N 40°38' W 074°08'0 0.0
2018-Sep-13 23:30N 40°38' W 074°08'0 0.0
2018-Sep-13 22:59N 40°38' W 074°08'0 0.0
2018-Sep-13 22:29N 40°38' W 074°08'0 0.0
2018-Sep-13 21:59N 40°38' W 074°08'0 0.0
2018-Sep-13 21:23N 40°38' W 074°08'0 0.0
2018-Sep-13 20:59N 40°38' W 074°08'0 0.0
2018-Sep-13 20:29N 40°38' W 074°08'0 0.1
2018-Sep-13 20:00N 40°38' W 074°08'3 5.8
2018-Sep-13 19:26N 40°42' W 074°08'1 1.6
2018-Sep-13 19:03N 40°41' W 074°08'0 5.5
2018-Sep-13 18:58N 40°41' W 074°08'2 4.4
2018-Sep-13 18:29N 40°39' W 074°07'0 0.2
2018-Sep-13 16:48N 40°38' W 074°08'1 2.4
2018-Sep-13 16:19N 40°39' W 074°06'0 0.0
2018-Sep-13 16:01N 40°39' W 074°06'0 0.0
2018-Sep-13 15:55N 40°39' W 074°06'0 0.2
2018-Sep-13 15:28N 40°39' W 074°06'0 1.0
2018-Sep-13 15:03N 40°39' W 074°06'0 1.2
2018-Sep-13 15:00N 40°39' W 074°06'1 2.1
2018-Sep-13 14:19N 40°38' W 074°08'0 0.0
2018-Sep-13 13:58N 40°38' W 074°08'0 0.0
2018-Sep-13 13:28N 40°38' W 074°08'0 0.0
2018-Sep-13 13:01N 40°38' W 074°08'0 0.0
2018-Sep-13 12:58N 40°38' W 074°08'0 0.0
2018-Sep-13 12:22N 40°38' W 074°08'0 0.0
2018-Sep-13 11:58N 40°38' W 074°08'0 0.0
2018-Sep-13 11:28N 40°38' W 074°08'0 0.0
2018-Sep-13 11:01N 40°38' W 074°08'0 0.0
2018-Sep-13 10:52N 40°38' W 074°08'  

Dump ship's entire track history